Time;durP1;ratioP1;P1;durP2;ratioP2;P2;SDS_P1;SDS_P2;PMS_P1;PMS_P2;Temp;Humidity;BMP_temperature;BMP_pressure;BME280_temperature;BME280_humidity;BME280_pressure;Samples;Min_cycle;Max_cycle;Signal;HPM_P1;HPM_P2
2022/11/11 00:01:30;;;;;;;9.43;5.05;;;9.30;99.90;;;;;;4942587;28;20071;-62
2022/11/11 00:03:56;;;;;;;9.63;5.00;;;9.30;99.90;;;;;;4943895;28;20054;-61
2022/11/11 00:06:21;;;;;;;9.02;4.63;;;9.10;99.90;;;;;;4943965;28;20115;-61
2022/11/11 00:08:48;;;;;;;11.43;5.18;;;9.10;99.90;;;;;;4951091;28;20042;-62
2022/11/11 00:11:14;;;;;;;13.40;4.80;;;9.10;99.90;;;;;;4940787;28;20479;-60
2022/11/11 00:13:42;;;;;;;12.95;5.05;;;9.00;99.90;;;;;;4946652;28;20086;-60
2022/11/11 00:16:11;;;;;;;8.68;4.72;;;9.00;99.90;;;;;;4944774;28;20034;-60
2022/11/11 00:26:48;;;;;;;11.68;4.80;;;8.80;99.90;;;;;;4946229;28;20054;-60
2022/11/11 00:29:14;;;;;;;10.15;4.63;;;8.90;99.90;;;;;;4941834;28;20442;-61
2022/11/11 00:32:21;;;;;;;11.07;5.35;;;8.90;99.90;;;;;;4939999;28;20043;-61
2022/11/11 00:34:25;;;;;;;12.23;5.47;;;8.80;99.90;;;;;;4942879;28;20039;-60
2022/11/11 00:36:51;;;;;;;11.93;5.50;;;8.80;99.90;;;;;;4936879;28;20047;-61
2022/11/11 00:39:16;;;;;;;10.32;5.28;;;8.80;99.90;;;;;;4946241;28;20109;-60
2022/11/11 00:41:42;;;;;;;10.00;5.18;;;8.80;99.90;;;;;;4933373;28;20078;-60
2022/11/11 00:44:08;;;;;;;10.05;5.57;;;8.70;99.90;;;;;;4942433;28;20042;-60
2022/11/11 00:52:02;;;;;;;11.52;6.20;;;8.80;99.90;;;;;;4940540;28;20157;-61
2022/11/11 00:54:27;;;;;;;11.13;6.43;;;8.60;99.90;;;;;;4945814;28;20108;-60
2022/11/11 00:56:53;;;;;;;10.48;5.68;;;8.70;99.90;;;;;;4949984;28;20057;-61
2022/11/11 00:59:18;;;;;;;10.38;5.57;;;8.60;99.90;;;;;;4947847;28;20118;-61
2022/11/11 01:01:44;;;;;;;10.75;5.75;;;8.60;99.90;;;;;;4939859;28;20039;-62
2022/11/11 01:04:09;;;;;;;11.75;6.10;;;8.60;99.90;;;;;;4943059;28;20035;-61
2022/11/11 01:06:35;;;;;;;11.60;5.80;;;8.70;99.90;;;;;;4942735;28;20505;-60
2022/11/11 01:09:05;;;;;;;11.30;5.90;;;8.60;99.90;;;;;;4941225;28;20652;-60
2022/11/11 01:11:32;;;;;;;9.18;5.43;;;8.60;99.90;;;;;;4926950;28;20028;-61
2022/11/11 01:13:57;;;;;;;10.55;6.28;;;8.50;99.90;;;;;;4945042;28;20027;-61
2022/11/11 01:16:25;;;;;;;11.48;6.07;;;8.40;99.90;;;;;;4944954;28;20498;-62
2022/11/11 01:18:52;;;;;;;13.15;5.57;;;8.40;99.90;;;;;;4936575;28;20042;-61
2022/11/11 01:21:19;;;;;;;8.82;5.85;;;8.30;99.90;;;;;;4945993;28;20205;-60
2022/11/11 01:23:47;;;;;;;11.15;5.97;;;8.40;99.90;;;;;;4940934;28;20510;-60
2022/11/11 01:26:16;;;;;;;11.82;6.00;;;8.30;99.90;;;;;;4945155;28;20102;-61
2022/11/11 01:28:42;;;;;;;10.10;5.43;;;8.50;99.90;;;;;;4937586;28;20229;-60
2022/11/11 01:31:11;;;;;;;10.50;6.07;;;8.40;99.90;;;;;;4941661;28;20098;-60
2022/11/11 01:33:37;;;;;;;10.90;5.82;;;8.50;99.90;;;;;;4935476;28;20458;-61
2022/11/11 01:36:09;;;;;;;12.68;6.57;;;8.40;99.90;;;;;;4940515;28;20023;-60
2022/11/11 01:38:36;;;;;;;12.63;6.30;;;8.40;99.90;;;;;;4942871;28;20043;-61
2022/11/11 01:41:31;;;;;;;12.05;6.50;;;8.30;99.90;;;;;;4939171;28;20122;-61
2022/11/11 01:43:48;;;;;;;10.65;6.50;;;8.40;99.90;;;;;;4937488;28;20042;-61
2022/11/11 01:46:29;;;;;;;13.75;6.43;;;8.50;99.90;;;;;;4939879;28;20039;-61
2022/11/11 01:49:20;;;;;;;10.13;6.90;;;8.50;99.90;;;;;;4944235;28;20039;-61
2022/11/11 01:51:55;;;;;;;12.35;6.78;;;8.40;99.90;;;;;;4948512;28;20316;-62
2022/11/11 01:54:23;;;;;;;9.48;6.50;;;8.60;99.90;;;;;;4942735;28;20231;-60
2022/11/11 01:56:54;;;;;;;10.50;6.45;;;8.50;99.90;;;;;;4942409;28;20028;-61
2022/11/11 01:59:20;;;;;;;11.10;6.72;;;8.50;99.90;;;;;;4940540;28;20035;-61
2022/11/11 02:01:46;;;;;;;13.43;6.75;;;8.30;99.90;;;;;;4941698;28;20444;-61
2022/11/11 02:07:01;;;;;;;15.18;7.32;;;8.30;99.90;;;;;;4939235;28;20054;-60
2022/11/11 02:09:28;;;;;;;8.95;6.38;;;8.10;99.90;;;;;;4942547;28;20066;-61
2022/11/11 02:15:03;;;;;;;12.85;6.50;;;8.10;99.90;;;;;;4881865;29;20457;-62
2022/11/11 02:17:31;;;;;;;13.88;6.15;;;8.20;99.90;;;;;;4880586;29;20489;-60
2022/11/11 02:20:02;;;;;;;14.95;6.78;;;8.10;99.90;;;;;;4914680;28;20516;-61
2022/11/11 02:23:05;;;;;;;13.82;7.00;;;8.20;99.90;;;;;;4944940;28;20149;-61
2022/11/11 02:25:32;;;;;;;14.13;6.88;;;8.10;99.90;;;;;;4943326;28;20561;-61
2022/11/11 02:28:02;;;;;;;10.18;6.97;;;8.00;99.90;;;;;;4949715;28;20097;-61
2022/11/11 02:30:28;;;;;;;10.82;6.82;;;7.90;99.90;;;;;;4953114;28;20042;-60
2022/11/11 02:32:54;;;;;;;14.57;7.28;;;8.00;99.90;;;;;;4944359;28;20046;-60
2022/11/11 02:35:29;;;;;;;13.30;6.57;;;8.10;99.90;;;;;;4945197;28;20123;-60
2022/11/11 02:37:54;;;;;;;11.65;6.82;;;8.10;99.90;;;;;;4946671;28;20027;-60
2022/11/11 02:40:36;;;;;;;12.18;6.72;;;7.90;99.90;;;;;;4937833;28;20070;-61
2022/11/11 02:43:03;;;;;;;11.98;6.90;;;8.20;99.90;;;;;;4942944;28;20047;-62
2022/11/11 02:45:29;;;;;;;13.40;6.88;;;8.30;99.90;;;;;;4941216;28;20041;-61
2022/11/11 02:47:54;;;;;;;11.00;6.50;;;8.30;99.90;;;;;;4941673;28;20032;-61
2022/11/11 02:50:20;;;;;;;10.65;6.40;;;8.20;99.90;;;;;;4943714;28;20090;-61
2022/11/11 02:52:45;;;;;;;13.68;6.95;;;8.10;99.90;;;;;;4942096;28;20047;-62
2022/11/11 02:55:11;;;;;;;13.02;6.50;;;8.00;99.90;;;;;;4940924;28;20039;-61
2022/11/11 02:57:37;;;;;;;11.25;6.63;;;8.00;99.90;;;;;;4945948;28;20041;-60
2022/11/11 03:00:04;;;;;;;12.98;6.75;;;8.10;99.90;;;;;;4946990;28;20031;-60
2022/11/11 03:02:30;;;;;;;11.90;6.80;;;8.10;99.90;;;;;;4939568;28;20039;-62
2022/11/11 03:04:56;;;;;;;9.65;6.70;;;7.90;99.90;;;;;;4947828;28;20134;-62
2022/11/11 03:07:23;;;;;;;13.02;6.97;;;7.90;99.90;;;;;;4947413;28;20031;-61
2022/11/11 03:09:49;;;;;;;12.27;6.60;;;7.80;99.90;;;;;;4950826;28;20061;-62
2022/11/11 03:12:15;;;;;;;12.95;7.13;;;7.80;99.90;;;;;;4944644;28;20035;-60
2022/11/11 03:14:41;;;;;;;12.75;7.18;;;7.80;99.90;;;;;;4945932;28;20031;-61
2022/11/11 03:19:51;;;;;;;15.13;7.15;;;7.80;99.90;;;;;;4940646;28;20050;-60
2022/11/11 03:22:17;;;;;;;10.85;7.03;;;7.80;99.90;;;;;;4939826;28;20038;-60
2022/11/11 03:27:27;;;;;;;14.07;7.60;;;7.70;99.90;;;;;;4945692;28;20513;-61
2022/11/11 03:29:52;;;;;;;12.32;7.38;;;7.70;99.90;;;;;;4943952;28;20024;-60
2022/11/11 03:32:18;;;;;;;14.63;7.78;;;7.70;99.90;;;;;;4944644;28;20047;-60
2022/11/11 03:34:43;;;;;;;13.13;7.93;;;7.80;99.90;;;;;;4950547;28;20035;-61
2022/11/11 03:39:54;;;;;;;13.55;8.07;;;7.80;99.90;;;;;;4942029;28;20038;-60
2022/11/11 03:42:20;;;;;;;15.88;9.20;;;7.90;99.90;;;;;;4952569;28;20050;-60
2022/11/11 03:44:46;;;;;;;13.65;8.07;;;7.90;99.90;;;;;;4944748;28;20039;-61
2022/11/11 03:47:11;;;;;;;13.32;7.85;;;7.90;99.90;;;;;;4949113;28;20086;-62
2022/11/11 03:49:37;;;;;;;13.20;8.38;;;7.90;99.90;;;;;;4951051;28;20075;-60
2022/11/11 03:52:02;;;;;;;12.60;8.15;;;7.90;99.90;;;;;;4933860;28;20149;-61
2022/11/11 03:54:28;;;;;;;16.23;8.90;;;7.80;99.90;;;;;;4924482;29;20106;-63
2022/11/11 03:57:29;;;;;;;11.77;7.80;;;7.80;99.90;;;;;;4944116;28;20058;-60
2022/11/11 03:59:42;;;;;;;11.13;8.38;;;7.80;99.90;;;;;;4944292;28;20400;-62
2022/11/11 04:10:23;;;;;;;12.27;8.65;;;7.70;99.90;;;;;;4938133;28;20482;-61
2022/11/11 04:21:41;;;;;;;14.25;8.57;;;7.70;99.90;;;;;;4947612;28;20038;-61
2022/11/11 04:23:51;;;;;;;17.77;9.10;;;7.60;99.90;;;;;;4944843;28;20033;-60
2022/11/11 04:26:17;;;;;;;12.27;9.27;;;7.60;99.90;;;;;;4943042;28;20450;-60
2022/11/11 04:31:27;;;;;;;11.60;8.73;;;7.60;99.90;;;;;;4942727;28;20050;-60
2022/11/11 04:33:52;;;;;;;14.27;9.13;;;7.60;99.90;;;;;;4945465;28;20023;-61
2022/11/11 04:36:18;;;;;;;13.15;9.23;;;7.60;99.90;;;;;;4944328;28;20123;-61
2022/11/11 04:41:27;;;;;;;14.13;8.35;;;7.60;99.90;;;;;;4942421;28;20089;-61
2022/11/11 04:46:37;;;;;;;12.70;8.95;;;7.60;99.90;;;;;;4938321;28;20058;-61
2022/11/11 04:49:03;;;;;;;15.43;9.02;;;7.60;99.90;;;;;;4949699;28;20285;-61
2022/11/11 04:52:25;;;;;;;13.75;8.80;;;7.60;99.90;;;;;;4948700;28;20039;-61
2022/11/11 04:54:14;;;;;;;14.80;8.75;;;7.60;99.90;;;;;;4946276;28;20050;-61
2022/11/11 04:56:49;;;;;;;13.57;8.75;;;7.60;99.90;;;;;;4941821;28;20027;-60
2022/11/11 04:59:15;;;;;;;11.90;9.00;;;7.50;99.90;;;;;;4938845;28;20027;-60
2022/11/11 05:04:25;;;;;;;14.13;8.82;;;7.40;99.90;;;;;;4936063;28;20046;-61
2022/11/11 05:09:35;;;;;;;14.25;8.63;;;7.30;99.90;;;;;;4944555;28;20030;-61
2022/11/11 05:12:01;;;;;;;13.90;8.80;;;7.30;99.90;;;;;;4945204;28;20498;-60
2022/11/11 05:22:41;;;;;;;13.65;8.57;;;7.30;99.90;;;;;;4942739;28;20054;-61
2022/11/11 05:25:29;;;;;;;13.93;8.50;;;7.30;99.90;;;;;;4941260;28;20874;-60
2022/11/11 05:27:58;;;;;;;13.05;8.98;;;7.30;99.90;;;;;;4933383;28;20490;-62
2022/11/11 05:30:24;;;;;;;15.55;9.13;;;7.20;99.90;;;;;;4939703;28;20085;-60
2022/11/11 05:32:50;;;;;;;15.25;8.90;;;7.30;99.90;;;;;;4941639;28;20362;-61
2022/11/11 05:35:16;;;;;;;14.85;9.30;;;7.30;99.90;;;;;;4939098;28;20302;-61
2022/11/11 05:38:18;;;;;;;14.65;9.20;;;7.30;99.90;;;;;;4939789;28;20111;-61
2022/11/11 05:40:29;;;;;;;15.27;9.35;;;7.30;99.90;;;;;;4941727;28;20565;-61
2022/11/11 05:42:54;;;;;;;15.15;9.07;;;7.30;99.90;;;;;;4946465;28;20082;-62
2022/11/11 05:45:20;;;;;;;15.60;8.82;;;7.30;99.90;;;;;;4942304;28;20050;-61
2022/11/11 05:47:45;;;;;;;11.55;8.45;;;7.30;99.90;;;;;;4942744;28;20031;-61
2022/11/11 05:50:11;;;;;;;15.00;9.20;;;7.40;99.90;;;;;;4947523;28;20383;-60
2022/11/11 05:52:36;;;;;;;14.40;8.70;;;7.40;99.90;;;;;;4946136;28;20038;-60
2022/11/11 05:55:02;;;;;;;12.55;8.82;;;7.30;99.90;;;;;;4941676;28;20595;-61
2022/11/11 05:57:28;;;;;;;13.38;8.98;;;7.30;99.90;;;;;;4944180;28;20500;-60
2022/11/11 05:59:53;;;;;;;14.98;8.70;;;7.30;99.90;;;;;;4941046;28;20388;-60
2022/11/11 06:02:20;;;;;;;16.52;9.20;;;7.30;99.90;;;;;;4941715;28;20062;-60
2022/11/11 06:04:45;;;;;;;14.95;8.77;;;7.30;99.90;;;;;;4941631;28;20031;-61
2022/11/11 06:07:11;;;;;;;17.38;9.48;;;7.30;99.90;;;;;;4945919;28;20027;-61
2022/11/11 06:09:36;;;;;;;14.50;8.55;;;7.40;99.90;;;;;;4945588;28;20039;-61
2022/11/11 06:12:02;;;;;;;12.40;7.97;;;7.50;99.90;;;;;;4927422;28;20391;-61
2022/11/11 06:14:28;;;;;;;15.73;8.13;;;7.50;99.90;;;;;;4941369;28;20514;-62
2022/11/11 06:16:53;;;;;;;14.73;8.85;;;7.60;99.90;;;;;;4943835;28;20050;-61
2022/11/11 06:19:19;;;;;;;14.02;8.90;;;7.50;99.90;;;;;;4941162;28;20075;-60
2022/11/11 06:21:56;;;;;;;12.93;8.13;;;7.50;99.90;;;;;;4942444;28;20130;-61
2022/11/11 06:24:22;;;;;;;14.82;8.20;;;7.50;99.90;;;;;;4943533;28;20411;-61
2022/11/11 06:26:48;;;;;;;13.82;8.18;;;7.60;99.90;;;;;;4939097;28;20279;-61
2022/11/11 06:29:13;;;;;;;14.35;8.25;;;7.50;99.90;;;;;;4940642;28;20676;-61
2022/11/11 06:31:39;;;;;;;15.18;8.10;;;7.50;99.90;;;;;;4943816;28;20038;-61
2022/11/11 06:34:04;;;;;;;11.43;8.07;;;7.50;99.90;;;;;;4942251;28;20395;-61
2022/11/11 06:36:30;;;;;;;13.40;7.72;;;7.50;99.90;;;;;;4941863;28;20066;-62
2022/11/11 06:38:55;;;;;;;16.52;8.18;;;7.60;99.90;;;;;;4943232;28;20112;-61
2022/11/11 06:41:24;;;;;;;13.80;8.15;;;7.60;99.90;;;;;;4938101;28;20226;-62
2022/11/11 06:43:50;;;;;;;11.48;7.60;;;7.50;99.90;;;;;;4949607;28;20057;-61
2022/11/11 06:46:24;;;;;;;11.10;7.70;;;7.50;99.90;;;;;;4940471;28;20035;-61
2022/11/11 06:48:50;;;;;;;51.60;38.72;;;7.60;99.90;;;;;;4949199;28;20708;-61
2022/11/11 06:51:16;;;;;;;50.38;35.40;;;7.70;99.90;;;;;;4942553;28;20479;-59
2022/11/11 06:53:42;;;;;;;20.73;12.57;;;7.80;99.90;;;;;;4945306;28;20058;-61
2022/11/11 06:56:08;;;;;;;12.20;8.13;;;7.90;99.90;;;;;;4933976;28;20444;-60
2022/11/11 06:58:34;;;;;;;11.35;7.95;;;7.80;99.90;;;;;;4923777;28;20047;-60
2022/11/11 07:01:03;;;;;;;11.85;7.35;;;7.80;99.90;;;;;;4922441;29;20059;-60
2022/11/11 07:03:29;;;;;;;15.15;6.72;;;7.80;99.90;;;;;;4945877;28;20106;-60
2022/11/11 07:05:55;;;;;;;13.90;7.32;;;7.80;99.90;;;;;;4945394;28;20043;-60
2022/11/11 07:08:20;;;;;;;12.55;7.95;;;7.80;99.90;;;;;;4939402;28;20040;-60
2022/11/11 07:10:47;;;;;;;11.65;7.50;;;7.80;99.90;;;;;;4946824;28;20043;-60
2022/11/11 07:13:14;;;;;;;14.43;7.78;;;7.80;99.90;;;;;;4947094;28;20063;-60
2022/11/11 07:15:41;;;;;;;13.27;7.45;;;7.80;99.90;;;;;;4953168;28;20032;-60
2022/11/11 07:18:07;;;;;;;13.23;7.07;;;7.90;99.90;;;;;;4941628;28;20039;-60
2022/11/11 07:20:33;;;;;;;14.10;7.28;;;7.90;99.90;;;;;;4942638;28;20110;-61
2022/11/11 07:22:58;;;;;;;12.18;6.97;;;7.90;99.90;;;;;;4944130;28;20050;-60
2022/11/11 07:25:24;;;;;;;12.20;7.18;;;7.90;99.90;;;;;;4936796;28;20051;-60
2022/11/11 07:27:49;;;;;;;14.48;7.53;;;8.00;99.90;;;;;;4948346;28;20038;-60
2022/11/11 07:30:15;;;;;;;11.55;6.85;;;8.00;99.90;;;;;;4945893;28;20514;-60
2022/11/11 07:32:45;;;;;;;23.30;9.70;;;8.00;99.90;;;;;;4947426;28;20126;-60
2022/11/11 07:35:13;;;;;;;11.30;7.38;;;8.10;99.90;;;;;;4943185;28;20031;-60
2022/11/11 07:37:39;;;;;;;18.75;8.93;;;8.10;99.90;;;;;;4947633;28;20125;-61
2022/11/11 07:40:05;;;;;;;12.15;7.55;;;8.20;99.90;;;;;;4944859;28;20129;-61
2022/11/11 07:42:30;;;;;;;12.05;7.15;;;8.20;99.90;;;;;;4941014;28;20610;-61
2022/11/11 07:44:56;;;;;;;14.98;7.95;;;8.10;99.90;;;;;;4946949;28;20035;-61
2022/11/11 07:47:21;;;;;;;11.52;7.65;;;8.20;99.90;;;;;;4945543;28;20035;-61
2022/11/11 07:49:47;;;;;;;13.55;7.82;;;8.30;99.90;;;;;;4946863;28;20123;-61
2022/11/11 07:52:13;;;;;;;14.38;8.43;;;8.20;99.90;;;;;;4939744;28;20035;-60
2022/11/11 07:54:38;;;;;;;41.30;29.30;;;8.40;99.90;;;;;;4926576;28;20027;-60
2022/11/11 07:57:04;;;;;;;15.32;9.55;;;8.50;99.90;;;;;;4944872;28;20035;-61
2022/11/11 07:59:29;;;;;;;13.45;8.60;;;8.50;99.90;;;;;;4941361;28;20475;-60
2022/11/11 08:01:55;;;;;;;14.77;8.07;;;8.60;99.90;;;;;;4941760;28;20143;-61
2022/11/11 08:04:20;;;;;;;13.38;8.38;;;8.60;99.90;;;;;;4946619;28;20043;-61
2022/11/11 08:06:46;;;;;;;12.82;8.10;;;8.70;99.90;;;;;;4940468;28;20036;-61
2022/11/11 08:09:11;;;;;;;15.30;8.98;;;8.70;99.90;;;;;;4948446;28;20028;-60
2022/11/11 08:14:21;;;;;;;15.18;7.50;;;8.90;99.90;;;;;;4938924;28;20117;-61
2022/11/11 08:16:47;;;;;;;12.75;7.93;;;8.90;99.90;;;;;;4950405;28;20038;-61
2022/11/11 08:19:12;;;;;;;21.55;8.45;;;8.90;99.90;;;;;;4937345;28;20038;-61
2022/11/11 08:21:38;;;;;;;13.40;7.47;;;9.00;99.90;;;;;;4945420;28;20034;-60
2022/11/11 08:24:04;;;;;;;13.60;7.45;;;9.00;99.90;;;;;;4942214;28;20273;-61
2022/11/11 08:26:29;;;;;;;14.65;7.38;;;9.00;99.90;;;;;;4942158;28;20038;-60
2022/11/11 08:28:56;;;;;;;13.20;7.60;;;9.10;99.90;;;;;;4939022;28;20352;-60
2022/11/11 08:31:21;;;;;;;13.20;7.20;;;9.20;99.90;;;;;;4942538;28;20035;-60
2022/11/11 08:33:47;;;;;;;10.88;6.18;;;9.10;99.90;;;;;;4944944;28;20035;-60
2022/11/11 08:36:12;;;;;;;11.60;7.20;;;9.10;99.90;;;;;;4945086;28;20027;-60
2022/11/11 08:38:38;;;;;;;12.80;6.90;;;9.30;99.90;;;;;;4945376;28;20058;-60
2022/11/11 08:41:06;;;;;;;12.93;7.30;;;9.40;99.90;;;;;;4941434;28;20027;-60
2022/11/11 08:43:32;;;;;;;13.02;6.90;;;9.50;99.90;;;;;;4946499;28;20102;-61
2022/11/11 08:46:00;;;;;;;15.70;6.28;;;9.50;99.90;;;;;;4942132;28;20114;-61
2022/11/11 08:48:25;;;;;;;11.20;6.97;;;9.60;99.90;;;;;;4939770;28;20042;-61
2022/11/11 08:50:52;;;;;;;12.07;6.35;;;9.60;99.90;;;;;;4945062;28;20090;-60
2022/11/11 08:53:19;;;;;;;13.43;6.45;;;9.60;99.90;;;;;;4940981;28;20037;-61
2022/11/11 08:55:44;;;;;;;11.30;6.18;;;9.70;99.90;;;;;;4945098;28;20035;-61
2022/11/11 08:58:10;;;;;;;11.43;6.20;;;9.80;99.90;;;;;;4944933;28;20450;-61
2022/11/11 09:00:36;;;;;;;11.00;6.35;;;9.80;99.90;;;;;;4940157;28;20039;-61
2022/11/11 09:03:03;;;;;;;13.52;5.90;;;;;;;;;;4942231;28;20459;-60
2022/11/11 09:05:29;;;;;;;10.55;5.85;;;10.00;99.90;;;;;;4941434;28;20078;-60
2022/11/11 09:07:55;;;;;;;12.80;5.95;;;10.00;99.90;;;;;;4944941;28;20506;-60
2022/11/11 09:10:21;;;;;;;12.27;6.18;;;10.10;99.90;;;;;;4946381;28;20038;-60
2022/11/11 09:12:47;;;;;;;12.20;6.10;;;10.10;99.90;;;;;;4944510;28;20098;-61
2022/11/11 09:15:12;;;;;;;9.50;6.03;;;10.10;99.90;;;;;;4939540;28;20082;-60
2022/11/11 09:17:38;;;;;;;11.20;6.20;;;10.20;99.90;;;;;;4941817;28;20521;-61
2022/11/11 09:20:04;;;;;;;9.52;5.72;;;10.20;99.90;;;;;;4938819;28;20046;-60
2022/11/11 09:22:29;;;;;;;17.00;6.70;;;10.30;99.90;;;;;;4945276;28;20051;-60
2022/11/11 09:24:55;;;;;;;12.02;5.68;;;10.30;99.90;;;;;;4945120;28;20509;-61
2022/11/11 09:27:21;;;;;;;11.20;6.15;;;10.30;99.90;;;;;;4940495;28;21126;-60
2022/11/11 09:29:47;;;;;;;11.95;6.22;;;10.50;99.90;;;;;;4941616;28;20035;-61
2022/11/11 09:32:12;;;;;;;9.50;6.00;;;10.50;99.90;;;;;;4939451;28;20205;-61
2022/11/11 09:34:38;;;;;;;10.63;5.90;;;10.60;99.90;;;;;;4943255;28;20604;-60
2022/11/11 09:37:03;;;;;;;11.75;6.38;;;10.50;99.90;;;;;;4941311;28;20095;-60
2022/11/11 09:39:29;;;;;;;13.57;5.97;;;10.60;99.90;;;;;;4945575;28;20039;-60
2022/11/11 09:42:28;;;;;;;9.98;6.25;;;10.60;99.90;;;;;;4935801;28;20105;-61
2022/11/11 09:45:18;;;;;;;12.77;6.05;;;10.70;99.90;;;;;;4942391;28;20029;-60
2022/11/11 09:48:17;;;;;;;10.00;5.88;;;10.70;99.90;;;;;;4940785;28;20023;-60
2022/11/11 09:50:53;;;;;;;10.07;6.10;;;10.80;99.90;;;;;;4944976;28;20035;-60
2022/11/11 09:53:26;;;;;;;10.27;5.68;;;11.00;99.90;;;;;;4947604;28;20031;-61
2022/11/11 09:55:57;;;;;;;10.25;5.55;;;11.70;99.90;;;;;;4939287;28;20035;-61
2022/11/11 09:58:42;;;;;;;14.73;6.15;;;11.10;99.90;;;;;;4942080;28;20035;-60
2022/11/11 10:01:12;;;;;;;9.90;5.93;;;11.10;99.90;;;;;;4937042;28;20047;-61
2022/11/11 10:03:46;;;;;;;9.27;5.75;;;11.20;99.90;;;;;;4941947;28;20310;-61
2022/11/11 10:06:17;;;;;;;;;;;11.40;99.90;;;;;;4943800;28;20035;-60
2022/11/11 10:08:54;;;;;;;8.30;4.88;;;11.40;99.90;;;;;;4945823;28;19925;-61
2022/11/11 10:12:01;;;;;;;9.07;5.18;;;11.30;99.90;;;;;;4944647;28;20031;-60
2022/11/11 10:14:34;;;;;;;8.95;5.20;;;11.40;99.90;;;;;;4936778;28;20281;-60
2022/11/11 10:17:03;;;;;;;9.75;4.38;;;11.40;99.90;;;;;;4939169;28;20644;-59
2022/11/11 10:19:49;;;;;;;9.55;4.55;;;11.40;99.90;;;;;;4941599;28;20057;-60
2022/11/11 10:22:21;;;;;;;8.48;4.55;;;11.50;99.90;;;;;;4940051;28;20090;-59
2022/11/11 10:25:11;;;;;;;8.55;4.75;;;11.50;99.90;;;;;;4923502;29;20501;-60
2022/11/11 10:27:41;;;;;;;8.80;4.80;;;11.60;99.90;;;;;;4945568;28;20039;-60
2022/11/11 10:30:21;;;;;;;10.50;5.10;;;11.60;99.90;;;;;;4936315;28;20031;-60
2022/11/11 10:32:56;;;;;;;12.20;4.85;;;11.60;99.90;;;;;;4941847;28;20039;-60
2022/11/11 10:35:28;;;;;;;9.05;5.13;;;11.70;99.90;;;;;;4938771;28;20044;-60
2022/11/11 10:38:08;;;;;;;8.77;4.78;;;11.80;99.90;;;;;;4942714;28;20383;-60
2022/11/11 10:40:57;;;;;;;9.38;4.75;;;11.80;99.90;;;;;;4945222;28;20032;-60
2022/11/11 10:43:25;;;;;;;9.30;4.95;;;11.90;99.90;;;;;;4943511;28;20051;-60
2022/11/11 10:45:54;;;;;;;10.05;4.95;;;12.20;99.90;;;;;;4943519;28;20580;-60
2022/11/11 10:48:35;;;;;;;8.90;4.53;;;12.00;99.90;;;;;;4946285;28;20047;-60
2022/11/11 10:51:02;;;;;;;6.28;4.10;;;12.10;99.90;;;;;;4937754;28;20043;-60
2022/11/11 10:53:53;;;;;;;7.35;4.18;;;12.10;99.90;;;;;;4940018;28;20150;-60
2022/11/11 10:56:42;;;;;;;11.23;4.43;;;12.20;99.90;;;;;;4932311;28;20425;-60
2022/11/11 10:59:14;;;;;;;10.05;4.30;;;12.20;99.90;;;;;;4941979;28;20500;-59
2022/11/11 11:02:05;;;;;;;8.90;3.78;;;12.30;99.90;;;;;;4944007;28;20110;-60
2022/11/11 11:04:39;;;;;;;5.93;4.00;;;12.30;99.90;;;;;;4945173;28;21036;-60
2022/11/11 11:07:10;;;;;;;8.02;4.90;;;12.40;99.90;;;;;;4949874;28;20035;-59
2022/11/11 11:09:53;;;;;;;7.18;4.07;;;12.40;99.90;;;;;;4919188;29;20145;-59
2022/11/11 11:12:49;;;;;;;6.85;3.97;;;12.50;99.90;;;;;;4940737;28;20047;-60
2022/11/11 11:15:21;;;;;;;7.18;4.22;;;12.50;99.90;;;;;;4939507;28;20040;-60
2022/11/11 11:18:13;;;;;;;9.50;4.63;;;12.70;99.90;;;;;;4938288;28;20475;-60
2022/11/11 11:20:58;;;;;;;7.25;4.00;;;12.80;99.90;;;;;;4939405;28;20035;-60
2022/11/11 11:23:44;;;;;;;7.72;4.20;;;12.70;99.90;;;;;;4947973;28;20114;-60
2022/11/11 11:26:12;;;;;;;24.20;15.52;;;12.70;99.90;;;;;;4925114;28;20031;-59
2022/11/11 11:28:56;;;;;;;9.00;5.47;;;12.80;99.90;;;;;;4946870;28;20123;-60
2022/11/11 11:31:36;;;;;;;10.10;4.47;;;12.80;99.90;;;;;;4947528;28;20115;-60
2022/11/11 11:34:02;;;;;;;7.75;4.38;;;12.80;99.90;;;;;;4944478;28;20038;-60
2022/11/11 11:36:28;;;;;;;8.95;4.63;;;12.90;99.90;;;;;;4942131;28;20031;-61
2022/11/11 11:38:53;;;;;;;9.48;4.05;;;12.90;99.90;;;;;;4941020;28;20058;-61
2022/11/11 11:41:43;;;;;;;8.15;4.53;;;12.90;99.90;;;;;;4942289;28;20035;-60
2022/11/11 11:44:32;;;;;;;8.32;3.97;;;13.00;99.90;;;;;;4942114;28;20058;-60
2022/11/11 11:47:25;;;;;;;6.93;4.18;;;13.00;99.90;;;;;;4939545;28;20450;-60
2022/11/11 11:50:34;;;;;;;10.38;4.05;;;13.10;99.90;;;;;;4939891;28;20039;-60
2022/11/11 11:53:25;;;;;;;9.95;4.03;;;13.10;99.90;;;;;;4941934;28;20722;-60
2022/11/11 11:56:03;;;;;;;10.82;4.22;;;13.20;99.90;;;;;;4945366;28;20023;-60
2022/11/11 11:58:52;;;;;;;12.52;4.15;;;13.20;99.90;;;;;;4948655;28;20035;-60
2022/11/11 12:01:50;;;;;;;10.40;4.18;;;13.20;99.90;;;;;;4943512;28;20818;-60
2022/11/11 12:04:47;;;;;;;7.53;4.30;;;13.10;99.90;;;;;;4919723;28;20815;-59
2022/11/11 12:07:16;;;;;;;13.27;4.32;;;13.40;99.90;;;;;;4945639;28;20179;-60
2022/11/11 12:10:04;;;;;;;7.28;3.92;;;13.60;99.90;;;;;;4937864;28;20158;-60
2022/11/11 12:12:38;;;;;;;7.18;3.83;;;13.40;99.90;;;;;;4944046;28;20556;-60
2022/11/11 12:15:24;;;;;;;7.13;4.13;;;13.40;99.90;;;;;;4940505;28;20043;-60
2022/11/11 12:18:31;;;;;;;9.18;3.92;;;13.40;99.90;;;;;;4943055;28;20024;-60
2022/11/11 12:21:15;;;;;;;8.40;3.97;;;13.40;99.90;;;;;;4947870;28;20027;-59
2022/11/11 12:23:52;;;;;;;8.25;4.05;;;13.30;99.90;;;;;;4943845;28;20043;-60
2022/11/11 12:26:35;;;;;;;8.60;3.83;;;13.30;99.90;;;;;;4939392;28;20047;-59
2022/11/11 12:29:21;;;;;;;;;;;13.30;99.90;;;;;;4939937;28;20213;-60
2022/11/11 12:32:03;;;;;;;10.05;4.10;;;13.30;99.90;;;;;;4936934;28;19929;-61
2022/11/11 12:34:37;;;;;;;8.80;3.88;;;13.20;99.90;;;;;;4937687;28;20377;-60
2022/11/11 12:37:30;;;;;;;7.90;4.32;;;13.20;99.90;;;;;;4936778;28;20451;-60
2022/11/11 12:40:05;;;;;;;9.25;4.43;;;13.30;99.90;;;;;;4945613;28;20027;-61
2022/11/11 12:42:39;;;;;;;8.20;4.50;;;13.20;99.90;;;;;;4942943;28;20653;-60
2022/11/11 12:45:14;;;;;;;8.02;4.22;;;13.20;99.90;;;;;;4938912;28;20123;-60
2022/11/11 12:47:58;;;;;;;6.95;3.35;;;13.20;99.90;;;;;;4943354;28;20067;-61
2022/11/11 12:50:45;;;;;;;7.45;3.60;;;13.10;99.90;;;;;;4945739;28;20138;-60
2022/11/11 12:53:41;;;;;;;10.75;4.13;;;13.10;99.90;;;;;;4945155;28;20483;-60
2022/11/11 12:56:27;;;;;;;9.63;3.55;;;13.10;99.90;;;;;;4939556;28;20039;-60
2022/11/11 12:59:04;;;;;;;8.27;3.88;;;13.10;99.90;;;;;;4942900;28;20046;-60
2022/11/11 13:01:46;;;;;;;9.75;3.75;;;13.20;99.90;;;;;;4940418;28;20047;-60
2022/11/11 13:04:48;;;;;;;8.10;3.63;;;13.10;99.90;;;;;;4939057;28;20461;-61
2022/11/11 13:07:58;;;;;;;10.25;4.00;;;13.20;99.90;;;;;;4943055;28;20086;-61
2022/11/11 13:10:52;;;;;;;9.75;3.92;;;13.20;99.90;;;;;;4931776;28;20475;-61
2022/11/11 13:13:43;;;;;;;10.02;3.78;;;13.10;99.90;;;;;;4947711;28;20501;-61
2022/11/11 13:16:09;;;;;;;8.73;3.85;;;13.20;99.90;;;;;;4939066;28;20046;-61
2022/11/11 13:18:49;;;;;;;5.65;3.30;;;13.20;99.90;;;;;;4948968;28;20101;-61
2022/11/11 13:21:20;;;;;;;8.02;3.63;;;13.20;99.90;;;;;;4936789;28;20031;-61
2022/11/11 13:23:45;;;;;;;8.20;3.58;;;13.20;99.90;;;;;;4949563;28;20126;-61
2022/11/11 13:26:18;;;;;;;7.20;3.53;;;13.20;99.90;;;;;;4939811;28;20512;-60
2022/11/11 13:28:47;;;;;;;;;;;13.30;99.90;;;;;;4948611;28;20540;-60
2022/11/11 13:31:18;;;;;;;7.82;3.40;;;13.30;99.90;;;;;;4939424;28;19923;-60
2022/11/11 13:33:48;;;;;;;6.55;3.15;;;13.30;99.90;;;;;;4942352;28;20043;-61
2022/11/11 13:36:17;;;;;;;7.90;3.30;;;13.40;99.90;;;;;;4932792;28;20035;-60
2022/11/11 13:38:58;;;;;;;6.97;3.70;;;13.40;99.90;;;;;;4945895;28;20479;-60
2022/11/11 13:41:31;;;;;;;7.93;3.28;;;13.40;99.90;;;;;;4942345;28;20042;-60
2022/11/11 13:44:04;;;;;;;7.00;3.50;;;13.40;99.90;;;;;;4944539;28;20035;-60
2022/11/11 13:46:38;;;;;;;5.53;3.05;;;13.40;99.90;;;;;;4943563;28;20023;-60
2022/11/11 13:49:09;;;;;;;5.97;3.30;;;13.30;99.90;;;;;;4926396;29;20054;-60
2022/11/11 13:51:38;;;;;;;5.13;3.22;;;13.30;99.90;;;;;;4943583;28;20181;-60
2022/11/11 13:54:37;;;;;;;8.60;3.45;;;13.30;99.90;;;;;;4942136;28;20126;-61
2022/11/11 13:57:16;;;;;;;7.20;3.35;;;13.30;99.90;;;;;;4937105;28;20403;-61
2022/11/11 13:59:50;;;;;;;8.73;3.10;;;13.40;99.90;;;;;;4940504;28;20665;-60
2022/11/11 14:02:18;;;;;;;5.75;3.10;;;13.40;99.90;;;;;;4940211;28;20542;-61
2022/11/11 14:05:05;;;;;;;7.40;3.53;;;13.40;99.90;;;;;;4938368;28;20379;-60
2022/11/11 14:07:43;;;;;;;6.57;3.00;;;13.40;99.90;;;;;;4942401;28;20032;-60
2022/11/11 14:10:29;;;;;;;8.85;3.22;;;13.40;99.90;;;;;;4923845;28;20114;-61
2022/11/11 14:13:20;;;;;;;5.35;3.10;;;13.40;99.90;;;;;;4945370;28;20178;-60
2022/11/11 14:15:49;;;;;;;8.27;3.42;;;13.30;99.90;;;;;;4945174;28;20120;-60
2022/11/11 14:18:17;;;;;;;6.85;3.30;;;13.30;99.90;;;;;;4944303;28;20126;-55
2022/11/11 14:20:50;;;;;;;35.60;25.27;;;13.40;99.90;;;;;;4945696;28;20509;-59